Time;durP1;ratioP1;P1;durP2;ratioP2;P2;SDS_P1;SDS_P2;PMS_P1;PMS_P2;Temp;Humidity;BMP_temperature;BMP_pressure;BME280_temperature;BME280_humidity;BME280_pressure;Samples;Min_cycle;Max_cycle;Signal;HPM_P1;HPM_P2
2022/03/31 00:00:41;;;;;;;10.47;4.20;;;7.60;99.90;;;;;;4975613;28;20042;-60
2022/03/31 00:03:14;;;;;;;13.30;5.45;;;7.50;99.90;;;;;;4977657;28;20636;-59
2022/03/31 00:05:41;;;;;;;24.90;6.15;;;7.50;99.90;;;;;;4977076;28;20053;-58
2022/03/31 00:08:10;;;;;;;19.90;5.80;;;7.50;99.90;;;;;;4976007;28;20414;-58
2022/03/31 00:10:44;;;;;;;11.27;5.63;;;7.50;99.90;;;;;;4977500;28;20116;-59
2022/03/31 00:13:13;;;;;;;15.85;6.60;;;7.50;99.90;;;;;;4976780;28;20495;-58
2022/03/31 00:15:40;;;;;;;11.32;5.53;;;7.50;99.90;;;;;;4976741;28;20041;-59
2022/03/31 00:18:09;;;;;;;14.23;5.40;;;7.50;99.90;;;;;;4976267;28;20050;-58
2022/03/31 00:20:36;;;;;;;11.90;5.30;;;7.50;99.90;;;;;;4976796;28;20038;-59
2022/03/31 00:23:05;;;;;;;16.40;6.03;;;7.50;99.90;;;;;;4975946;28;20038;-59
2022/03/31 00:25:32;;;;;;;16.25;5.70;;;7.50;99.90;;;;;;4976162;28;20096;-59
2022/03/31 00:28:03;;;;;;;9.77;4.53;;;7.50;99.90;;;;;;4976603;28;20065;-60
2022/03/31 00:30:31;;;;;;;12.13;5.57;;;7.50;99.90;;;;;;4974679;28;20791;-59
2022/03/31 00:32:59;;;;;;;23.02;5.50;;;7.50;99.90;;;;;;4977127;28;20046;-58
2022/03/31 00:35:26;;;;;;;20.75;6.75;;;7.50;99.90;;;;;;4976614;28;20153;-59
2022/03/31 00:37:53;;;;;;;22.15;7.15;;;7.50;99.90;;;;;;4975524;28;20120;-59
2022/03/31 00:40:20;;;;;;;;;;;7.50;99.90;;;;;;4976771;28;20050;-59
2022/03/31 00:42:54;;;;;;;16.55;6.50;;;7.40;99.90;;;;;;4976149;28;19980;-59
2022/03/31 00:45:24;;;;;;;20.42;6.00;;;7.40;99.90;;;;;;4975029;28;20048;-59
2022/03/31 00:47:52;;;;;;;21.73;6.18;;;7.30;99.90;;;;;;4975615;28;20603;-59
2022/03/31 00:50:19;;;;;;;22.45;6.20;;;7.30;99.90;;;;;;4976528;28;20141;-59
2022/03/31 00:52:46;;;;;;;24.88;7.75;;;7.30;99.90;;;;;;4975803;28;20074;-59
2022/03/31 00:55:14;;;;;;;;;;;7.20;99.90;;;;;;4976765;28;20046;-58
2022/03/31 00:57:43;;;;;;;17.67;6.57;;;7.20;99.90;;;;;;4975546;28;19926;-58
2022/03/31 01:00:11;;;;;;;27.48;8.10;;;7.20;99.90;;;;;;4975787;28;20046;-58
2022/03/31 01:02:43;;;;;;;21.85;6.38;;;7.20;99.90;;;;;;4975579;28;20101;-60
2022/03/31 01:05:11;;;;;;;27.80;8.00;;;7.30;99.90;;;;;;4975833;28;20038;-59
2022/03/31 01:07:39;;;;;;;23.15;6.88;;;7.20;99.90;;;;;;4975568;28;20536;-59
2022/03/31 01:10:08;;;;;;;12.05;5.85;;;7.20;99.90;;;;;;4975843;28;20061;-58
2022/03/31 01:21:01;;;;;;;16.90;7.10;;;7.20;99.90;;;;;;4975669;28;20260;-58
2022/03/31 01:23:28;;;;;;;12.25;5.75;;;7.20;99.90;;;;;;4974515;28;20046;-59
2022/03/31 01:25:56;;;;;;;16.63;6.45;;;7.20;99.90;;;;;;4975901;28;20046;-58
2022/03/31 01:28:23;;;;;;;16.95;6.25;;;7.20;99.90;;;;;;4974667;28;20034;-59
2022/03/31 01:30:50;;;;;;;14.27;6.47;;;7.20;99.90;;;;;;4975599;28;20112;-59
2022/03/31 01:33:17;;;;;;;17.77;5.82;;;7.20;99.90;;;;;;4981467;28;20505;-59
2022/03/31 01:35:44;;;;;;;16.63;6.00;;;7.20;99.90;;;;;;4994679;28;20053;-59
2022/03/31 01:38:10;;;;;;;24.00;6.25;;;7.20;99.90;;;;;;4990071;28;20057;-58
2022/03/31 01:40:38;;;;;;;17.02;6.30;;;7.20;99.90;;;;;;4974970;28;20548;-58
2022/03/31 01:43:05;;;;;;;11.75;5.28;;;7.20;99.90;;;;;;4975759;28;20100;-59
2022/03/31 01:45:32;;;;;;;;;;;7.20;99.90;;;;;;4976160;28;20034;-58
2022/03/31 01:48:02;;;;;;;13.10;5.63;;;7.20;99.90;;;;;;4974563;28;19926;-59
2022/03/31 01:50:29;;;;;;;20.27;5.80;;;7.20;99.90;;;;;;4975276;28;20783;-59
2022/03/31 01:52:56;;;;;;;16.45;5.47;;;7.30;99.90;;;;;;4975532;28;20049;-58
2022/03/31 01:55:23;;;;;;;;;;;7.30;99.90;;;;;;4976010;28;20050;-59
2022/03/31 01:57:50;;;;;;;9.52;4.65;;;7.30;99.90;;;;;;4974440;28;19933;-58
2022/03/31 02:00:17;;;;;;;;;;;7.30;99.90;;;;;;4976497;28;20058;-59
2022/03/31 02:02:44;;;;;;;13.45;6.10;;;7.30;99.90;;;;;;4974850;28;19936;-58
2022/03/31 02:05:11;;;;;;;18.02;5.63;;;7.30;99.90;;;;;;4975474;28;20027;-59
2022/03/31 02:07:38;;;;;;;15.85;6.68;;;7.30;99.90;;;;;;4974511;28;20050;-59
2022/03/31 02:10:10;;;;;;;10.45;5.28;;;7.20;99.90;;;;;;4975647;28;20035;-59
2022/03/31 02:12:38;;;;;;;14.75;5.38;;;7.20;99.90;;;;;;4975768;28;20393;-59
2022/03/31 02:15:05;;;;;;;15.73;7.00;;;7.20;99.90;;;;;;4975536;28;20047;-58
2022/03/31 02:17:32;;;;;;;21.98;6.90;;;7.10;99.90;;;;;;4974231;28;20046;-59
2022/03/31 02:19:59;;;;;;;18.95;8.68;;;7.10;99.90;;;;;;4974803;28;20474;-59
2022/03/31 02:22:26;;;;;;;;;;;7.00;99.90;;;;;;4976075;28;20050;-59
2022/03/31 02:24:53;;;;;;;20.20;7.50;;;6.90;99.90;;;;;;4973165;28;19933;-59
2022/03/31 02:27:19;;;;;;;27.20;8.68;;;6.90;99.90;;;;;;4974358;28;20053;-59
2022/03/31 02:29:46;;;;;;;16.77;7.68;;;6.90;99.90;;;;;;4975608;28;20046;-59
2022/03/31 02:32:13;;;;;;;;;;;6.80;99.90;;;;;;4975052;28;20053;-58
2022/03/31 02:34:40;;;;;;;17.90;6.25;;;6.80;99.90;;;;;;4975508;28;19926;-59
2022/03/31 02:37:06;;;;;;;12.45;6.57;;;6.80;99.90;;;;;;4974553;28;20109;-59
2022/03/31 02:39:33;;;;;;;;;;;6.80;99.90;;;;;;4975341;28;20049;-58
2022/03/31 02:42:03;;;;;;;16.98;7.25;;;6.80;99.90;;;;;;4974558;28;20739;-59
2022/03/31 02:44:30;;;;;;;20.88;8.52;;;6.80;99.90;;;;;;4975567;28;20514;-59
2022/03/31 02:46:56;;;;;;;;;;;6.80;99.90;;;;;;4974812;28;20046;-58
2022/03/31 02:49:23;;;;;;;18.13;7.63;;;6.80;99.90;;;;;;4977790;28;20474;-59
2022/03/31 02:51:50;;;;;;;;;;;6.80;99.90;;;;;;4978879;28;20042;-59
2022/03/31 02:57:02;;;;;;;15.75;7.38;;;6.80;99.90;;;;;;4978168;28;20054;-59
2022/03/31 02:59:30;;;;;;;15.00;5.97;;;6.90;99.90;;;;;;4978272;28;20693;-59
2022/03/31 03:01:58;;;;;;;16.92;7.10;;;6.90;99.90;;;;;;4963274;28;20050;-59
2022/03/31 03:04:27;;;;;;;11.50;5.90;;;6.90;99.90;;;;;;4965971;28;20863;-59
2022/03/31 03:06:53;;;;;;;16.63;6.57;;;6.90;99.90;;;;;;4958203;28;20047;-60
2022/03/31 03:09:20;;;;;;;23.08;8.40;;;7.00;99.90;;;;;;4959026;28;20694;-59
2022/03/31 03:11:47;;;;;;;13.73;6.57;;;7.00;99.90;;;;;;4958206;28;20122;-60
2022/03/31 03:14:14;;;;;;;18.98;7.25;;;7.00;99.90;;;;;;4959335;28;20105;-60
2022/03/31 03:16:40;;;;;;;;;;;7.10;99.90;;;;;;4978262;28;20135;-59
2022/03/31 03:19:08;;;;;;;17.25;6.68;;;7.10;99.90;;;;;;4978016;28;19980;-59
2022/03/31 03:21:35;;;;;;;14.90;6.28;;;7.10;99.90;;;;;;4977993;28;20074;-58
2022/03/31 03:24:03;;;;;;;19.58;7.85;;;7.10;99.90;;;;;;4976984;28;20050;-59
2022/03/31 03:26:30;;;;;;;17.15;6.78;;;7.10;99.90;;;;;;4978172;28;20050;-60
2022/03/31 03:28:57;;;;;;;14.52;7.38;;;7.10;99.90;;;;;;4977023;28;20117;-60
2022/03/31 03:31:24;;;;;;;15.18;8.02;;;7.10;99.90;;;;;;4977537;28;20082;-58
2022/03/31 03:33:51;;;;;;;;;;;7.10;99.90;;;;;;4978183;28;20054;-59
2022/03/31 03:36:18;;;;;;;17.25;6.32;;;7.10;99.90;;;;;;4977860;28;19926;-60
2022/03/31 03:38:46;;;;;;;18.15;7.60;;;7.10;99.90;;;;;;4976279;28;20157;-60
2022/03/31 03:41:13;;;;;;;19.83;7.80;;;7.10;99.90;;;;;;4976643;28;20049;-59
2022/03/31 03:43:41;;;;;;;15.70;8.05;;;7.10;99.90;;;;;;4977871;28;20042;-59
2022/03/31 03:46:09;;;;;;;13.70;7.13;;;7.20;99.90;;;;;;4977450;28;20211;-59
2022/03/31 03:48:35;;;;;;;18.42;7.03;;;7.20;99.90;;;;;;4976653;28;20038;-59
2022/03/31 03:51:02;;;;;;;17.52;6.72;;;7.20;99.90;;;;;;4976320;28;20046;-59
2022/03/31 03:53:30;;;;;;;10.88;6.03;;;7.20;99.90;;;;;;4977131;28;20053;-58
2022/03/31 03:55:56;;;;;;;11.98;6.43;;;7.20;99.90;;;;;;4977222;28;20507;-59
2022/03/31 03:58:23;;;;;;;12.02;6.28;;;7.20;99.90;;;;;;4976357;28;20050;-58
2022/03/31 04:00:50;;;;;;;15.75;8.02;;;7.20;99.90;;;;;;4975085;28;20659;-60
2022/03/31 04:03:17;;;;;;;;;;;7.20;99.90;;;;;;4977215;28;20070;-58
2022/03/31 04:05:44;;;;;;;20.83;7.63;;;7.20;99.90;;;;;;4977436;28;19929;-59
2022/03/31 04:08:11;;;;;;;;;;;7.20;99.90;;;;;;4976140;28;20054;-59
2022/03/31 04:10:38;;;;;;;20.40;7.47;;;7.20;99.90;;;;;;4977262;28;20027;-58
2022/03/31 04:13:05;;;;;;;15.77;6.97;;;7.20;99.90;;;;;;4977486;28;20046;-59
2022/03/31 04:15:32;;;;;;;;;;;7.20;99.90;;;;;;4977032;28;20039;-58
2022/03/31 04:17:59;;;;;;;11.02;5.53;;;7.20;99.90;;;;;;4976497;28;19925;-58
2022/03/31 04:20:26;;;;;;;24.20;7.47;;;7.20;99.90;;;;;;4975205;28;20133;-59
2022/03/31 04:22:52;;;;;;;;;;;7.20;99.90;;;;;;4977126;28;20050;-58
2022/03/31 04:25:19;;;;;;;15.48;6.60;;;7.20;99.90;;;;;;4975534;28;19930;-58
2022/03/31 04:27:46;;;;;;;17.05;7.28;;;7.20;99.90;;;;;;4975768;28;20042;-58
2022/03/31 04:30:13;;;;;;;16.70;6.50;;;7.20;99.90;;;;;;4977074;28;20042;-58
2022/03/31 04:32:40;;;;;;;13.02;7.72;;;7.20;99.90;;;;;;4975662;28;20720;-59
2022/03/31 04:35:08;;;;;;;11.60;7.35;;;7.20;99.90;;;;;;4975788;28;20065;-58
2022/03/31 04:37:34;;;;;;;16.95;7.72;;;7.20;99.90;;;;;;4976050;28;20394;-58
2022/03/31 04:40:03;;;;;;;11.05;7.00;;;7.20;99.90;;;;;;4968264;28;20058;-59
2022/03/31 04:42:30;;;;;;;15.60;7.55;;;7.20;99.90;;;;;;4976159;28;20050;-59
2022/03/31 04:44:57;;;;;;;;;;;7.20;99.90;;;;;;4977664;28;20757;-58
2022/03/31 04:47:24;;;;;;;20.60;7.90;;;7.20;99.90;;;;;;4975780;28;19929;-58
2022/03/31 04:49:51;;;;;;;17.73;7.35;;;7.20;99.90;;;;;;4977396;28;20050;-59
2022/03/31 04:52:18;;;;;;;;;;;7.10;99.90;;;;;;4993894;28;20042;-59
2022/03/31 04:54:44;;;;;;;12.48;6.82;;;7.10;99.90;;;;;;4994746;28;19987;-59
2022/03/31 04:57:12;;;;;;;;;;;7.10;99.90;;;;;;4995339;28;20034;-59
2022/03/31 04:59:39;;;;;;;24.88;8.93;;;7.10;99.90;;;;;;4995527;28;19925;-58
2022/03/31 05:02:06;;;;;;;12.27;6.85;;;7.10;99.90;;;;;;4994500;28;20050;-59
2022/03/31 05:04:33;;;;;;;19.42;7.75;;;7.00;99.90;;;;;;4988064;28;20120;-58
2022/03/31 05:07:00;;;;;;;14.40;7.68;;;7.00;99.90;;;;;;4975865;28;20046;-58
2022/03/31 05:09:27;;;;;;;27.20;10.55;;;7.00;99.90;;;;;;4976073;28;20069;-56
2022/03/31 05:11:55;;;;;;;16.88;8.20;;;7.00;99.90;;;;;;4973477;28;20054;-57
2022/03/31 05:14:21;;;;;;;21.20;10.20;;;7.00;99.90;;;;;;4976236;28;20050;-56
2022/03/31 05:16:48;;;;;;;;;;;7.00;99.90;;;;;;4975439;28;20038;-57
2022/03/31 05:19:15;;;;;;;19.98;8.40;;;6.90;99.90;;;;;;4975742;28;19928;-56
2022/03/31 05:21:42;;;;;;;16.15;8.85;;;7.00;99.90;;;;;;4975664;28;20049;-59
2022/03/31 05:24:09;;;;;;;19.17;7.60;;;7.00;99.90;;;;;;4975046;28;20038;-57
2022/03/31 05:26:36;;;;;;;12.10;7.80;;;7.00;99.90;;;;;;4975822;28;20061;-59
2022/03/31 05:29:03;;;;;;;;;;;7.00;99.90;;;;;;4975396;28;20061;-57
2022/03/31 05:31:29;;;;;;;18.92;8.80;;;7.00;99.90;;;;;;4975379;28;19929;-59
2022/03/31 05:33:56;;;;;;;18.55;8.30;;;7.00;99.90;;;;;;4975802;28;20046;-57
2022/03/31 05:36:23;;;;;;;11.10;7.00;;;7.00;99.90;;;;;;4976001;28;20042;-56
2022/03/31 05:38:50;;;;;;;;;;;7.10;99.90;;;;;;4974960;28;20793;-55
2022/03/31 05:41:16;;;;;;;21.67;8.57;;;7.10;99.90;;;;;;4975208;28;19969;-57
2022/03/31 05:43:43;;;;;;;;;;;7.10;99.90;;;;;;4976074;28;20057;-58
2022/03/31 05:46:10;;;;;;;16.00;8.32;;;7.10;99.90;;;;;;4975529;28;20443;-57
2022/03/31 05:48:37;;;;;;;;;;;7.10;99.90;;;;;;4975672;28;20053;-59
2022/03/31 05:51:03;;;;;;;17.58;8.95;;;7.10;99.90;;;;;;4976170;28;19926;-56
2022/03/31 05:53:30;;;;;;;11.70;7.78;;;7.10;99.90;;;;;;4975051;28;20054;-57
2022/03/31 05:55:57;;;;;;;16.88;9.90;;;7.10;99.90;;;;;;4973889;28;20055;-58
2022/03/31 05:58:24;;;;;;;15.43;8.85;;;7.20;99.90;;;;;;4974612;28;20043;-56
2022/03/31 06:00:53;;;;;;;14.40;8.57;;;7.20;99.90;;;;;;4975413;28;20038;-59
2022/03/31 06:03:23;;;;;;;15.77;8.63;;;7.20;99.90;;;;;;4974943;28;20053;-55
2022/03/31 06:05:50;;;;;;;15.77;8.73;;;7.20;99.90;;;;;;4975799;28;20046;-57
2022/03/31 06:08:18;;;;;;;17.52;8.38;;;7.20;99.90;;;;;;4973129;28;20684;-56
2022/03/31 06:10:46;;;;;;;15.65;8.57;;;7.20;99.90;;;;;;4974926;28;20109;-58
2022/03/31 06:13:13;;;;;;;22.10;10.32;;;7.20;99.90;;;;;;4975860;28;20046;-57
2022/03/31 06:15:40;;;;;;;21.23;9.10;;;7.20;99.90;;;;;;4974750;28;20048;-58
2022/03/31 06:18:07;;;;;;;17.90;8.65;;;7.20;99.90;;;;;;4956947;28;20046;-60
2022/03/31 06:20:35;;;;;;;14.73;8.75;;;7.20;99.90;;;;;;4974136;28;20158;-57
2022/03/31 06:23:02;;;;;;;15.73;8.63;;;7.20;99.90;;;;;;4975913;28;20054;-57
2022/03/31 06:25:29;;;;;;;19.48;9.93;;;7.20;99.90;;;;;;4978349;28;20038;-58
2022/03/31 06:27:56;;;;;;;20.20;10.02;;;7.20;99.90;;;;;;4976835;28;20053;-59
2022/03/31 06:30:23;;;;;;;19.27;9.48;;;7.20;99.90;;;;;;4977877;28;20081;-59
2022/03/31 06:32:50;;;;;;;;;;;7.20;99.90;;;;;;4977706;28;20065;-56
2022/03/31 06:35:17;;;;;;;20.45;9.95;;;7.30;99.90;;;;;;4979181;28;19929;-59
2022/03/31 06:37:46;;;;;;;24.40;10.30;;;7.30;99.90;;;;;;4975907;28;20054;-58
2022/03/31 06:40:14;;;;;;;20.77;10.75;;;7.30;99.90;;;;;;4978703;28;20047;-58
2022/03/31 06:42:43;;;;;;;28.48;12.82;;;7.30;99.90;;;;;;4978577;28;20050;-59
2022/03/31 06:45:12;;;;;;;24.83;11.55;;;7.30;99.90;;;;;;4977195;28;20042;-59
2022/03/31 06:47:54;;;;;;;23.92;10.52;;;7.30;99.90;;;;;;4977889;28;20070;-58
2022/03/31 06:50:26;;;;;;;25.15;12.05;;;7.30;99.90;;;;;;4978498;28;20101;-54
2022/03/31 06:52:56;;;;;;;25.77;12.70;;;7.30;99.90;;;;;;4978483;28;20050;-57
2022/03/31 06:55:23;;;;;;;31.42;13.85;;;7.30;99.90;;;;;;4976657;28;20046;-57
2022/03/31 06:57:50;;;;;;;26.13;12.85;;;7.30;99.90;;;;;;4977815;28;20082;-56
2022/03/31 07:00:17;;;;;;;;;;;7.30;99.90;;;;;;4961882;28;20092;-55
2022/03/31 07:02:44;;;;;;;27.70;11.80;;;7.30;99.90;;;;;;4976120;28;19925;-57
2022/03/31 07:05:10;;;;;;;29.13;14.27;;;7.30;99.90;;;;;;4978842;28;20291;-55
2022/03/31 07:07:42;;;;;;;36.83;13.88;;;7.30;99.90;;;;;;4976925;28;20053;-56
2022/03/31 07:10:09;;;;;;;32.58;13.02;;;7.30;99.90;;;;;;4977433;28;20716;-55
2022/03/31 07:12:41;;;;;;;32.63;14.55;;;7.30;99.90;;;;;;4978130;28;20042;-56
2022/03/31 07:15:09;;;;;;;37.15;14.98;;;7.40;99.90;;;;;;4977914;28;20042;-56
2022/03/31 07:17:37;;;;;;;29.00;13.77;;;7.40;99.90;;;;;;4975290;28;20595;-57
2022/03/31 07:20:04;;;;;;;31.70;12.95;;;7.40;99.90;;;;;;4978621;28;20050;-55
2022/03/31 07:22:32;;;;;;;32.28;13.63;;;7.40;99.90;;;;;;4976363;28;20089;-57
2022/03/31 07:24:59;;;;;;;37.97;15.27;;;7.50;99.90;;;;;;4977553;28;20046;-56
2022/03/31 07:27:26;;;;;;;30.48;14.02;;;7.50;99.90;;;;;;4976752;28;20049;-56
2022/03/31 07:29:53;;;;;;;;;;;7.50;99.90;;;;;;4977667;28;20385;-56
2022/03/31 07:32:20;;;;;;;38.33;13.25;;;7.50;99.90;;;;;;4975988;28;19929;-55
2022/03/31 07:34:46;;;;;;;24.75;12.38;;;7.50;99.90;;;;;;4977666;28;20648;-57
2022/03/31 07:37:13;;;;;;;;;;;7.60;99.90;;;;;;4977339;28;20049;-54
2022/03/31 07:39:45;;;;;;;32.63;13.05;;;7.60;99.90;;;;;;4977025;28;19929;-57
2022/03/31 07:42:13;;;;;;;28.42;14.77;;;7.60;99.90;;;;;;4975854;28;20042;-55
2022/03/31 07:44:41;;;;;;;30.90;14.57;;;7.60;99.90;;;;;;4975764;28;20070;-56
2022/03/31 07:47:08;;;;;;;43.28;15.27;;;7.60;99.90;;;;;;4975287;28;20038;-54
2022/03/31 07:49:35;;;;;;;33.67;13.90;;;7.70;99.90;;;;;;4977779;28;20038;-55
2022/03/31 07:52:03;;;;;;;34.75;15.23;;;7.70;99.90;;;;;;4975748;28;20685;-59
2022/03/31 07:54:30;;;;;;;37.38;15.02;;;7.80;99.90;;;;;;4959671;28;20054;-57
2022/03/31 07:56:57;;;;;;;32.88;14.68;;;7.80;99.90;;;;;;4975471;28;20124;-57
2022/03/31 07:59:29;;;;;;;30.42;14.27;;;7.90;99.90;;;;;;4976700;28;20105;-54
2022/03/31 08:01:56;;;;;;;28.92;13.68;;;7.90;99.90;;;;;;4976557;28;20145;-56
2022/03/31 08:04:23;;;;;;;27.35;13.48;;;8.00;99.90;;;;;;4976808;28;20042;-58
2022/03/31 08:06:51;;;;;;;29.27;12.82;;;8.00;99.90;;;;;;4975875;28;20042;-58
2022/03/31 08:09:20;;;;;;;41.28;14.27;;;8.10;99.90;;;;;;4977167;28;20073;-57
2022/03/31 08:11:51;;;;;;;31.83;14.50;;;8.20;99.90;;;;;;4976563;28;20350;-58
2022/03/31 08:14:19;;;;;;;27.50;12.80;;;8.20;99.90;;;;;;4975430;28;20038;-56
2022/03/31 08:16:48;;;;;;;34.60;13.60;;;8.30;99.90;;;;;;4975430;28;20054;-58
2022/03/31 08:19:16;;;;;;;37.03;13.68;;;8.40;99.90;;;;;;4977170;28;20042;-57
2022/03/31 08:21:47;;;;;;;34.85;13.50;;;8.50;99.90;;;;;;4974366;28;20038;-58
2022/03/31 08:24:15;;;;;;;29.13;11.63;;;8.70;99.90;;;;;;4975221;28;20046;-57
2022/03/31 08:26:43;;;;;;;26.75;10.25;;;8.80;99.90;;;;;;4975551;28;20057;-60
2022/03/31 08:29:11;;;;;;;37.17;11.55;;;9.10;99.90;;;;;;4976422;28;20077;-60
2022/03/31 08:31:38;;;;;;;32.70;9.80;;;9.50;99.90;;;;;;4976341;28;20053;-60
2022/03/31 08:34:07;;;;;;;31.30;12.48;;;9.70;99.90;;;;;;4974907;28;20043;-61
2022/03/31 08:36:33;;;;;;;36.03;10.82;;;9.90;99.90;;;;;;4975456;28;20056;-59
2022/03/31 08:39:01;;;;;;;;;;;10.20;99.90;;;;;;4975696;28;20050;-60
2022/03/31 08:41:28;;;;;;;32.40;12.98;;;10.60;99.90;;;;;;4976528;28;20021;-58
2022/03/31 08:43:56;;;;;;;30.60;10.50;;;10.90;99.90;;;;;;4975964;28;20647;-60
2022/03/31 08:46:27;;;;;;;33.70;11.25;;;11.10;99.90;;;;;;4974148;28;20065;-59
2022/03/31 08:48:56;;;;;;;30.88;9.30;;;11.30;99.90;;;;;;4975554;28;20034;-57
2022/03/31 08:51:23;;;;;;;25.67;8.93;;;11.40;99.90;;;;;;4974283;28;20519;-57
2022/03/31 08:53:50;;;;;;;25.83;9.30;;;11.40;99.90;;;;;;4976139;28;20086;-57
2022/03/31 08:56:17;;;;;;;27.83;8.52;;;11.50;99.90;;;;;;4975584;28;20042;-62
2022/03/31 08:58:45;;;;;;;24.77;9.00;;;11.60;99.90;;;;;;4974977;28;20105;-60
2022/03/31 09:01:15;;;;;;;27.63;10.85;;;11.70;99.90;;;;;;4975692;28;20050;-60
2022/03/31 09:03:42;;;;;;;27.23;9.80;;;11.80;99.90;;;;;;4974796;28;20462;-58
2022/03/31 09:06:30;;;;;;;31.75;10.40;;;11.90;99.90;;;;;;4975905;28;20544;-58
2022/03/31 09:09:02;;;;;;;21.80;9.35;;;12.10;99.90;;;;;;4975228;28;20042;-60
2022/03/31 09:11:37;;;;;;;21.98;9.75;;;12.30;99.90;;;;;;4976121;28;20038;-59
2022/03/31 09:14:15;;;;;;;40.25;8.80;;;12.60;99.90;;;;;;4975364;28;20145;-58
2022/03/31 09:16:44;;;;;;;;;;;12.70;99.90;;;;;;4976354;28;20069;-59
2022/03/31 09:19:13;;;;;;;24.05;8.30;;;12.60;99.90;;;;;;4973808;28;19935;-57
2022/03/31 09:21:58;;;;;;;27.58;10.13;;;12.70;99.90;;;;;;4974289;28;20663;-57
2022/03/31 09:24:27;;;;;;;30.38;9.18;;;12.90;99.90;;;;;;4973837;28;20632;-57
2022/03/31 09:26:58;;;;;;;22.77;8.43;;;13.10;99.90;;;;;;4972103;28;20098;-56
2022/03/31 09:29:30;;;;;;;27.55;8.45;;;13.30;99.90;;;;;;4979339;28;20329;-59
2022/03/31 09:32:06;;;;;;;24.05;8.38;;;13.50;99.90;;;;;;4992981;28;20036;-56
2022/03/31 09:34:44;;;;;;;21.30;7.97;;;13.70;99.90;;;;;;4993029;28;20845;-57
2022/03/31 09:37:12;;;;;;;23.75;7.90;;;13.90;99.90;;;;;;4991708;28;20108;-57
2022/03/31 09:39:40;;;;;;;22.15;9.10;;;14.00;99.90;;;;;;4990657;28;20773;-56
2022/03/31 09:42:16;;;;;;;24.20;7.38;;;13.90;99.90;;;;;;4989687;28;20104;-57
2022/03/31 09:44:43;;;;;;;31.05;8.23;;;13.90;99.90;;;;;;4973788;28;20053;-57
2022/03/31 09:47:10;;;;;;;31.23;8.23;;;13.70;99.90;;;;;;4973457;28;20074;-56
2022/03/31 09:49:38;;;;;;;26.85;8.32;;;13.40;99.90;;;;;;4974013;28;20042;-57
2022/03/31 09:52:07;;;;;;;22.73;7.25;;;13.20;99.90;;;;;;4973637;28;20049;-57
2022/03/31 09:54:35;;;;;;;29.02;7.55;;;13.00;99.90;;;;;;4973109;28;20508;-57
2022/03/31 09:57:06;;;;;;;28.00;6.93;;;12.90;99.90;;;;;;4972968;28;20049;-57
2022/03/31 09:59:36;;;;;;;34.50;8.57;;;12.70;99.90;;;;;;4976494;28;20038;-58
2022/03/31 10:02:03;;;;;;;29.85;7.78;;;12.70;99.90;;;;;;4977739;28;20046;-58
2022/03/31 10:04:31;;;;;;;40.55;7.57;;;12.60;99.90;;;;;;4976759;28;20073;-59
2022/03/31 10:06:59;;;;;;;30.88;6.97;;;12.60;99.90;;;;;;4975578;28;20271;-57
2022/03/31 10:09:26;;;;;;;;;;;12.60;99.90;;;;;;4977919;28;20038;-55
2022/03/31 10:12:03;;;;;;;33.10;9.27;;;12.60;99.90;;;;;;4976784;28;20465;-57
2022/03/31 10:14:45;;;;;;;43.30;8.68;;;12.50;99.90;;;;;;4977171;28;20060;-56
2022/03/31 10:17:13;;;;;;;37.17;8.93;;;12.40;99.90;;;;;;4975212;28;20053;-57
2022/03/31 10:19:43;;;;;;;23.40;8.45;;;12.20;99.90;;;;;;4977167;28;20313;-57
2022/03/31 10:24:40;;;;;;;36.78;8.60;;;12.10;99.90;;;;;;4977011;28;20068;-57
2022/03/31 10:24:58;;;;;;;33.78;8.77;;;12.00;99.90;;;;;;4975850;28;20061;-57
2022/03/31 10:27:26;;;;;;;23.65;8.70;;;12.00;99.90;;;;;;4974412;28;20770;-58
2022/03/31 10:29:53;;;;;;;25.60;8.50;;;11.90;99.90;;;;;;4975608;28;20644;-57
2022/03/31 10:32:24;;;;;;;23.35;8.10;;;11.90;99.90;;;;;;4973348;28;20728;-58
2022/03/31 10:34:54;;;;;;;30.33;9.13;;;11.80;99.90;;;;;;4976146;28;20054;-57
2022/03/31 10:37:34;;;;;;;30.60;11.32;;;11.80;99.90;;;;;;4976226;28;20038;-58
2022/03/31 10:40:07;;;;;;;37.15;12.75;;;11.70;99.90;;;;;;4967709;28;20051;-57
2022/03/31 10:42:34;;;;;;;39.10;15.15;;;11.70;99.90;;;;;;4976238;28;20965;-57
2022/03/31 10:45:06;;;;;;;44.22;15.57;;;11.60;99.90;;;;;;4976549;28;20049;-57
2022/03/31 10:47:35;;;;;;;43.33;15.63;;;11.60;99.90;;;;;;4976208;28;20042;-59
2022/03/31 10:50:04;;;;;;;29.73;14.32;;;11.70;99.90;;;;;;4976543;28;20089;-57
2022/03/31 10:52:32;;;;;;;32.63;15.80;;;11.80;99.90;;;;;;4975499;28;20049;-58
2022/03/31 10:55:14;;;;;;;31.02;14.07;;;12.00;99.90;;;;;;4975548;28;20092;-57
2022/03/31 10:57:45;;;;;;;31.00;14.45;;;12.40;99.90;;;;;;4975563;28;20560;-57
2022/03/31 11:00:14;;;;;;;41.80;16.13;;;12.70;99.90;;;;;;4976739;28;20038;-59
2022/03/31 11:02:46;;;;;;;42.63;14.35;;;13.00;99.90;;;;;;4976107;28;20066;-58
2022/03/31 11:05:38;;;;;;;36.35;13.23;;;13.20;99.90;;;;;;4976241;28;20148;-58
2022/03/31 11:08:06;;;;;;;31.65;13.32;;;13.30;99.90;;;;;;4975380;28;20077;-59
2022/03/31 11:10:43;;;;;;;33.53;13.82;;;13.30;99.90;;;;;;4975868;28;20050;-56
2022/03/31 11:13:09;;;;;;;37.38;13.25;;;13.20;99.90;;;;;;4976319;28;20073;-58
2022/03/31 11:15:38;;;;;;;28.23;14.02;;;13.10;99.90;;;;;;4976139;28;20073;-58
2022/03/31 11:18:05;;;;;;;36.60;11.75;;;12.90;99.90;;;;;;4975711;28;20042;-57
2022/03/31 11:20:32;;;;;;;28.88;12.52;;;12.80;99.90;;;;;;4975607;28;20125;-59
2022/03/31 11:23:08;;;;;;;25.85;10.82;;;12.70;99.90;;;;;;4974935;28;20042;-58
2022/03/31 11:25:36;;;;;;;26.40;12.23;;;12.70;99.90;;;;;;4975738;28;20043;-59
2022/03/31 11:28:08;;;;;;;29.98;13.23;;;12.60;99.90;;;;;;4973159;28;20046;-58
2022/03/31 11:30:36;;;;;;;38.13;14.50;;;12.60;99.90;;;;;;4974610;28;20057;-58
2022/03/31 11:33:03;;;;;;;31.83;13.10;;;12.50;99.90;;;;;;4976071;28;20101;-58
2022/03/31 11:35:31;;;;;;;43.05;14.63;;;12.40;99.90;;;;;;4975948;28;20776;-58
2022/03/31 11:38:00;;;;;;;37.85;14.88;;;12.40;99.90;;;;;;4973637;28;20092;-58
2022/03/31 11:40:32;;;;;;;37.70;14.30;;;12.40;99.90;;;;;;4978838;28;20052;-58
2022/03/31 11:43:02;;;;;;;35.42;14.65;;;12.30;99.90;;;;;;4984095;28;20034;-58
2022/03/31 11:45:38;;;;;;;37.03;13.63;;;12.20;99.90;;;;;;4958560;28;20547;-57
2022/03/31 11:48:13;;;;;;;32.05;13.52;;;12.10;99.90;;;;;;4974539;28;20053;-58
2022/03/31 11:51:03;;;;;;;33.63;13.63;;;12.00;99.90;;;;;;4975182;28;20034;-58
2022/03/31 11:53:37;;;;;;;35.33;13.15;;;11.80;99.90;;;;;;4975477;28;20137;-56
2022/03/31 11:56:16;;;;;;;32.70;12.68;;;11.70;99.90;;;;;;4975786;28;20121;-59
2022/03/31 11:58:48;;;;;;;32.75;11.57;;;11.60;99.90;;;;;;4974590;28;20173;-58
2022/03/31 12:01:17;;;;;;;36.30;13.60;;;11.60;99.90;;;;;;4975367;28;20053;-58
2022/03/31 12:03:44;;;;;;;35.13;13.18;;;11.60;99.90;;;;;;4975267;28;20068;-58
2022/03/31 12:06:13;;;;;;;37.67;13.40;;;11.60;99.90;;;;;;4974384;28;20043;-58
2022/03/31 12:08:41;;;;;;;33.78;14.27;;;11.80;99.90;;;;;;4973885;28;20145;-57
2022/03/31 12:11:08;;;;;;;33.55;12.00;;;11.90;99.90;;;;;;4974611;28;20639;-57
2022/03/31 12:13:46;;;;;;;;;;;12.00;99.90;;;;;;4975834;28;20077;-57
2022/03/31 12:16:13;;;;;;;38.30;13.25;;;12.00;99.90;;;;;;4973927;28;20493;-57
2022/03/31 12:18:42;;;;;;;;;;;12.00;99.90;;;;;;4974593;28;20057;-57
2022/03/31 12:21:08;;;;;;;32.35;12.30;;;12.00;99.90;;;;;;4974027;28;19933;-57
2022/03/31 12:23:43;;;;;;;;;;;11.90;99.90;;;;;;4973907;28;20096;-58
2022/03/31 12:26:30;;;;;;;28.85;12.02;;;11.90;99.90;;;;;;4975177;28;20461;-57
2022/03/31 12:28:58;;;;;;;;;;;11.80;99.90;;;;;;4973243;28;20051;-57
2022/03/31 12:31:29;;;;;;;41.47;12.23;;;11.70;99.90;;;;;;4974880;28;19925;-56
2022/03/31 12:33:57;;;;;;;26.73;11.57;;;11.70;99.90;;;;;;4972728;28;20050;-56
2022/03/31 12:36:31;;;;;;;47.05;14.30;;;11.70;99.90;;;;;;4974502;28;20056;-57
2022/03/31 12:39:02;;;;;;;41.40;14.50;;;11.70;99.90;;;;;;4971845;28;20129;-56
2022/03/31 12:41:35;;;;;;;50.08;13.30;;;11.70;99.90;;;;;;4974197;28;20451;-57
2022/03/31 12:44:05;;;;;;;47.60;13.15;;;11.70;99.90;;;;;;4974367;28;20527;-57
2022/03/31 12:46:38;;;;;;;54.17;12.38;;;12.00;99.90;;;;;;4974155;28;20468;-55
2022/03/31 12:49:13;;;;;;;40.92;12.63;;;12.40;99.90;;;;;;4974044;28;20108;-57
2022/03/31 12:51:50;;;;;;;32.50;12.18;;;12.70;99.90;;;;;;4974146;28;20053;-58
2022/03/31 12:54:21;;;;;;;42.13;13.70;;;13.20;99.90;;;;;;4974113;28;20065;-59
2022/03/31 12:56:49;;;;;;;42.13;13.07;;;13.50;99.90;;;;;;4973397;28;20054;-57
2022/03/31 12:59:23;;;;;;;36.15;11.68;;;13.70;99.90;;;;;;4974595;28;20046;-58
2022/03/31 13:02:07;;;;;;;30.25;11.27;;;13.80;99.90;;;;;;4973453;28;20414;-58
2022/03/31 13:04:45;;;;;;;28.15;10.65;;;13.80;99.90;;;;;;4974066;28;20339;-57
2022/03/31 13:07:17;;;;;;;33.22;10.10;;;13.80;99.90;;;;;;4973278;28;20702;-57
2022/03/31 13:09:46;;;;;;;28.02;10.15;;;13.80;99.90;;;;;;4974309;28;20053;-57